Time;durP1;ratioP1;P1;durP2;ratioP2;P2;SDS_P1;SDS_P2;PMS_P1;PMS_P2;Temp;Humidity;BMP_temperature;BMP_pressure;BME280_temperature;BME280_humidity;BME280_pressure;Samples;Min_cycle;Max_cycle;Signal;HPM_P1;HPM_P2
2021/04/04 00:00:13;;;;;;;9.73;6.10;;;;;;;1.77;82.27;96545.75;1044169;28;20103;-48
2021/04/04 00:00:43;;;;;;;12.35;6.07;;;;;;;1.77;82.02;96549.16;1045409;28;20029;-47
2021/04/04 00:01:14;;;;;;;12.10;6.73;;;;;;;1.76;81.93;96544.09;1045327;28;20036;-50
2021/04/04 00:01:46;;;;;;;10.90;6.10;;;;;;;1.72;82.54;96547.91;1045382;28;20021;-48
2021/04/04 00:02:17;;;;;;;11.38;5.90;;;;;;;1.74;82.12;96546.00;1045057;28;20021;-47
2021/04/04 00:02:47;;;;;;;12.87;5.87;;;;;;;1.78;81.67;96547.38;1045252;28;20029;-47
2021/04/04 00:03:18;;;;;;;11.53;6.10;;;;;;;1.78;81.15;96550.81;1040925;28;20052;-46
2021/04/04 00:03:49;;;;;;;10.73;5.83;;;;;;;1.83;81.12;96547.00;1041689;28;20092;-46
2021/04/04 00:04:20;;;;;;;10.45;5.85;;;;;;;1.85;80.66;96550.28;1041154;28;20041;-47
2021/04/04 00:04:51;;;;;;;11.50;5.33;;;;;;;1.85;80.50;96547.69;1037203;28;20148;-46
2021/04/04 00:05:21;;;;;;;13.25;6.30;;;;;;;1.77;80.69;96541.34;1041054;28;20083;-46
2021/04/04 00:05:52;;;;;;;11.47;5.50;;;;;;;1.77;81.28;96543.13;1041387;28;20091;-47
2021/04/04 00:06:23;;;;;;;17.80;6.40;;;;;;;1.74;80.99;96546.81;1045192;28;20012;-47
2021/04/04 00:06:53;;;;;;;11.90;5.77;;;;;;;1.75;80.99;96540.69;1045199;28;20032;-47
2021/04/04 00:07:24;;;;;;;13.43;5.63;;;;;;;1.65;81.64;96537.19;1042750;28;20025;-46
2021/04/04 00:07:54;;;;;;;9.73;5.93;;;;;;;1.64;81.71;96540.78;1041473;28;20084;-47
2021/04/04 00:08:25;;;;;;;13.47;6.03;;;;;;;1.66;81.64;96538.03;1040742;28;20133;-47
2021/04/04 00:08:55;;;;;;;10.60;5.90;;;;;;;1.67;81.80;96543.09;1041386;28;20013;-53
2021/04/04 00:09:26;;;;;;;10.13;5.67;;;;;;;1.65;81.74;96536.38;1041122;28;20053;-47
2021/04/04 00:09:56;;;;;;;11.40;5.70;;;;;;;1.64;82.16;96542.53;1041460;28;20100;-46
2021/04/04 00:10:27;;;;;;;11.80;5.63;;;;;;;1.69;81.33;96538.59;1041168;28;20025;-46
2021/04/04 00:10:57;;;;;;;12.80;5.90;;;;;;;1.65;81.81;96537.19;1041389;28;20439;-46
2021/04/04 00:11:28;;;;;;;12.57;5.20;;;;;;;1.68;81.37;96539.53;1041214;28;20374;-47
2021/04/04 00:11:59;;;;;;;10.60;5.53;;;;;;;1.68;81.06;96542.13;1041640;28;20025;-47
2021/04/04 00:12:29;;;;;;;12.70;5.67;;;;;;;1.66;81.68;96541.47;1041245;28;20112;-47
2021/04/04 00:13:00;;;;;;;10.83;5.73;;;;;;;1.66;81.47;96538.84;1041084;28;20025;-48
2021/04/04 00:13:30;;;;;;;10.60;5.90;;;;;;;1.65;81.42;96532.00;1041311;28;20100;-48
2021/04/04 00:14:01;;;;;;;12.00;5.97;;;;;;;1.57;82.10;96535.25;1041309;28;20028;-46
2021/04/04 00:14:32;;;;;;;8.93;5.40;;;;;;;1.57;82.39;96539.63;1041370;28;20108;-47
2021/04/04 00:15:07;;;;;;;11.03;5.70;;;;;;;1.57;82.14;96535.25;1041437;28;20040;-47
2021/04/04 00:15:40;;;;;;;10.02;5.82;;;;;;;1.58;82.15;96536.91;1041139;28;20021;-51
2021/04/04 00:16:11;;;;;;;12.13;5.97;;;;;;;1.48;82.99;96537.81;1041028;28;20030;-47
2021/04/04 00:16:41;;;;;;;16.07;5.50;;;;;;;1.49;83.92;96539.44;1040683;28;20033;-48
2021/04/04 00:17:12;;;;;;;11.87;5.73;;;;;;;1.45;84.11;96535.47;1044141;28;20032;-45
2021/04/04 00:17:42;;;;;;;10.40;5.87;;;;;;;1.43;85.11;96543.38;1045475;28;20021;-47
2021/04/04 00:18:13;;;;;;;10.00;5.63;;;;;;;1.45;84.80;96541.47;1044810;28;20489;-46
2021/04/04 00:18:43;;;;;;;13.07;6.03;;;;;;;1.46;84.48;96537.09;1043753;28;20021;-47
2021/04/04 00:19:14;;;;;;;10.47;5.90;;;;;;;1.48;84.30;96538.63;1036740;28;20029;-46
2021/04/04 00:19:44;;;;;;;11.30;5.77;;;;;;;1.48;83.94;96535.22;1036932;28;20022;-47
2021/04/04 00:20:16;;;;;;;12.30;5.37;;;;;;;1.50;83.75;96536.72;1041056;28;20101;-46
2021/04/04 00:20:47;;;;;;;10.77;5.40;;;;;;;1.50;84.13;96534.13;1041291;28;20031;-48
2021/04/04 00:21:17;;;;;;;11.20;5.73;;;;;;;1.50;83.97;96541.09;1041395;28;20061;-46
2021/04/04 00:21:48;;;;;;;14.07;6.10;;;;;;;1.52;84.02;96545.22;1045241;28;20021;-47
2021/04/04 00:22:18;;;;;;;10.13;5.37;;;;;;;1.53;83.58;96536.44;1045402;28;20487;-47
2021/04/04 00:22:49;;;;;;;12.70;5.60;;;;;;;1.55;83.41;96538.91;1045397;28;20112;-46
2021/04/04 00:23:19;;;;;;;12.43;5.93;;;;;;;1.53;83.09;96536.44;1045147;28;20071;-47
2021/04/04 00:23:50;;;;;;;9.97;5.80;;;;;;;1.53;83.35;96533.03;1041451;28;20091;-46
2021/04/04 00:24:20;;;;;;;9.00;5.30;;;;;;;1.57;83.50;96534.44;1041620;28;20056;-47
2021/04/04 00:24:51;;;;;;;14.60;6.30;;;;;;;1.55;82.84;96538.91;1041585;28;20028;-47
2021/04/04 00:25:21;;;;;;;10.07;5.77;;;;;;;1.54;83.23;96537.28;1042427;28;20143;-47
2021/04/04 00:25:52;;;;;;;11.43;5.70;;;;;;;1.52;83.41;96534.00;1041737;28;20056;-47
2021/04/04 00:26:22;;;;;;;11.10;5.50;;;;;;;1.55;83.46;96536.31;1041066;28;20376;-48
2021/04/04 00:26:53;;;;;;;11.63;5.93;;;;;;;1.49;83.48;96531.66;1041304;28;20395;-46
2021/04/04 00:27:23;;;;;;;8.90;5.50;;;;;;;1.47;83.70;96531.78;1037133;28;20030;-46
2021/04/04 00:27:54;;;;;;;10.30;5.73;;;;;;;1.46;83.90;96534.50;1037139;28;20022;-46
2021/04/04 00:28:24;;;;;;;10.17;5.97;;;;;;;1.48;83.98;96532.63;1041416;28;20017;-47
2021/04/04 00:28:54;;;;;;;11.33;5.60;;;;;;;1.47;83.96;96536.97;1037120;28;20040;-46
2021/04/04 00:29:25;;;;;;;11.20;5.37;;;;;;;1.50;83.74;96531.53;1041373;28;20025;-47
2021/04/04 00:29:55;;;;;;;13.63;6.03;;;;;;;1.45;83.88;96530.28;1041376;28;20021;-46
2021/04/04 00:30:26;;;;;;;13.50;6.27;;;;;;;1.45;83.71;96535.47;1037421;28;20022;-46
2021/04/04 00:30:57;;;;;;;12.57;6.30;;;;;;;1.43;83.75;96533.00;1041255;28;20025;-46
2021/04/04 00:31:27;;;;;;;12.17;6.27;;;;;;;1.41;83.91;96537.47;1041396;28;20021;-47
2021/04/04 00:31:58;;;;;;;16.60;6.33;;;;;;;1.37;84.81;96530.94;1041322;28;20075;-47
2021/04/04 00:32:28;;;;;;;14.70;6.23;;;;;;;1.36;84.86;96537.06;1041372;28;20025;-47
2021/04/04 00:32:59;;;;;;;14.90;6.00;;;;;;;1.32;84.74;96536.50;1037466;28;20025;-48
2021/04/04 00:33:29;;;;;;;10.30;5.53;;;;;;;1.36;84.20;96537.88;1037111;28;20053;-45
2021/04/04 00:34:00;;;;;;;13.37;5.87;;;;;;;1.38;84.19;96535.16;1037353;28;20495;-45
2021/04/04 00:34:30;;;;;;;12.30;6.07;;;;;;;1.40;84.66;96530.66;1041501;28;20422;-46
2021/04/04 00:35:01;;;;;;;12.70;6.40;;;;;;;1.42;84.05;96526.97;1041358;28;20021;-46
2021/04/04 00:35:31;;;;;;;11.33;5.97;;;;;;;1.39;83.91;96532.41;1041039;28;20506;-47
2021/04/04 00:36:02;;;;;;;12.70;6.10;;;;;;;1.37;84.64;96539.53;1042090;28;20032;-47
2021/04/04 00:36:33;;;;;;;13.97;6.20;;;;;;;1.34;85.03;96537.19;1040926;28;20025;-47
2021/04/04 00:37:03;;;;;;;9.05;5.65;;;;;;;1.32;84.85;96533.91;1040802;28;20721;-47
2021/04/04 00:37:35;;;;;;;10.40;6.10;;;;;;;1.35;84.52;96531.06;1041453;28;20104;-47
2021/04/04 00:38:05;;;;;;;11.57;5.80;;;;;;;1.36;84.78;96535.28;1041544;28;20059;-48
2021/04/04 00:38:36;;;;;;;12.60;6.07;;;;;;;1.33;84.99;96529.53;1040810;28;20048;-46
2021/04/04 00:39:07;;;;;;;9.93;5.70;;;;;;;1.35;84.72;96531.06;1040927;28;20025;-47
2021/04/04 00:39:37;;;;;;;13.75;5.80;;;;;;;1.36;84.82;96530.09;1041043;28;20113;-46
2021/04/04 00:40:15;;;;;;;13.33;5.97;;;;;;;1.36;84.83;96527.50;1041268;28;20508;-45
2021/04/04 00:40:46;;;;;;;10.60;5.72;;;;;;;1.36;84.95;96535.28;1041364;28;20048;-47
2021/04/04 00:41:16;;;;;;;10.80;5.60;;;;;;;1.36;84.84;96522.28;1041386;28;20477;-46
2021/04/04 00:41:47;;;;;;;10.87;6.00;;;;;;;1.36;85.03;96530.09;1041152;28;20463;-46
2021/04/04 00:42:17;;;;;;;12.63;5.97;;;;;;;1.39;84.88;96523.81;1041403;28;20036;-46
2021/04/04 00:42:48;;;;;;;9.90;5.50;;;;;;;1.39;84.75;96527.22;1040974;28;20022;-46
2021/04/04 00:43:18;;;;;;;11.63;5.70;;;;;;;1.37;84.55;96531.72;1041240;28;20100;-46
2021/04/04 00:43:49;;;;;;;12.17;5.43;;;;;;;1.36;84.95;96534.47;1041056;28;20495;-46
2021/04/04 00:44:19;;;;;;;12.37;5.90;;;;;;;1.33;84.75;96527.75;1040993;28;20136;-46
2021/04/04 00:44:52;;;;;;;7.97;5.20;;;;;;;1.29;85.46;96528.13;1041209;28;20017;-46
2021/04/04 00:45:24;;;;;;;11.23;5.72;;;;;;;1.25;85.96;96524.97;1041045;28;20089;-46
2021/04/04 00:45:54;;;;;;;14.38;6.28;;;;;;;1.29;85.58;96528.13;1040780;28;20022;-46
2021/04/04 00:46:25;;;;;;;12.43;5.53;;;;;;;1.30;85.63;96528.00;1040822;28;20386;-46
2021/04/04 00:46:55;;;;;;;9.60;5.30;;;;;;;1.31;85.88;96526.25;1044716;28;20025;-47
2021/04/04 00:47:26;;;;;;;11.43;5.93;;;;;;;1.24;85.79;96524.16;1044942;28;20052;-46
2021/04/04 00:47:56;;;;;;;12.07;5.27;;;;;;;1.21;86.48;96529.56;1044849;28;20088;-46
2021/04/04 00:48:27;;;;;;;11.50;5.97;;;;;;;1.19;86.58;96530.66;1048979;28;20390;-47
2021/04/04 00:48:58;;;;;;;13.53;6.13;;;;;;;1.17;86.72;96527.38;1049204;28;20017;-46
2021/04/04 00:49:28;;;;;;;12.40;5.83;;;;;;;1.16;86.65;96525.75;1049265;28;20016;-47
2021/04/04 00:49:59;;;;;;;12.83;6.30;;;;;;;1.16;86.70;96529.16;1048944;28;20051;-46
2021/04/04 00:50:34;;;;;;;11.43;5.60;;;;;;;1.19;86.75;96530.66;1044887;28;20013;-46
2021/04/04 00:51:04;;;;;;;10.88;5.70;;;;;;;1.08;86.96;96531.56;1045012;28;20017;-46
2021/04/04 00:51:35;;;;;;;10.80;5.80;;;;;;;1.02;87.40;96527.69;1045493;28;20017;-47
2021/04/04 00:52:06;;;;;;;14.73;5.87;;;;;;;1.01;87.79;96531.22;1045242;28;20352;-47
2021/04/04 00:52:37;;;;;;;11.73;6.10;;;;;;;1.01;88.06;96527.81;1036887;28;20437;-47
2021/04/04 00:53:07;;;;;;;14.47;5.73;;;;;;;0.96;88.65;96533.38;1032569;28;20022;-46
2021/04/04 00:53:38;;;;;;;11.93;6.00;;;;;;;0.97;88.50;96532.44;1032842;28;20019;-46
2021/04/04 00:54:08;;;;;;;10.27;5.87;;;;;;;0.99;88.56;96532.31;1037378;28;20041;-46
2021/04/04 00:54:39;;;;;;;11.63;6.07;;;;;;;0.95;88.76;96528.31;1041009;28;20018;-46
2021/04/04 00:55:10;;;;;;;11.17;6.10;;;;;;;0.99;88.75;96527.94;1045104;28;20021;-47
2021/04/04 00:55:41;;;;;;;13.13;5.97;;;;;;;0.95;88.60;96530.91;1044944;28;20013;-46
2021/04/04 00:56:12;;;;;;;13.40;5.97;;;;;;;0.96;88.43;96530.78;1045015;28;20391;-46
2021/04/04 00:56:42;;;;;;;12.10;6.43;;;;;;;0.89;88.72;96534.81;1045352;28;20013;-47
2021/04/04 00:57:13;;;;;;;11.83;6.50;;;;;;;0.87;89.29;96537.53;1043814;28;20470;-46
2021/04/04 00:57:43;;;;;;;14.40;6.70;;;;;;;0.83;89.47;96538.72;1036708;28;20014;-47
2021/04/04 00:58:14;;;;;;;9.53;5.90;;;;;;;0.84;89.71;96542.97;1036992;28;20029;-46
2021/04/04 00:58:45;;;;;;;13.93;6.27;;;;;;;0.86;90.00;96542.84;1036814;28;20072;-47
2021/04/04 00:59:15;;;;;;;10.70;6.77;;;;;;;0.83;90.66;96545.69;1036903;28;20052;-47
2021/04/04 00:59:45;;;;;;;13.63;6.00;;;;;;;0.81;90.75;96538.03;1036845;28;20022;-46
2021/04/04 01:00:20;;;;;;;13.63;6.37;;;;;;;0.84;90.25;96540.38;1028575;28;20035;-46
2021/04/04 01:00:50;;;;;;;10.35;6.10;;;;;;;0.88;90.03;96543.53;1029117;28;20519;-46
2021/04/04 01:01:21;;;;;;;10.27;5.60;;;;;;;0.87;89.74;96537.53;1029451;28;20030;-46
2021/04/04 01:01:52;;;;;;;11.23;6.00;;;;;;;0.95;89.95;96542.09;1030167;28;20089;-47
2021/04/04 01:02:22;;;;;;;8.70;5.50;;;;;;;0.95;89.37;96539.50;1032763;28;20030;-47
2021/04/04 01:02:55;;;;;;;14.63;6.10;;;;;;;0.95;90.16;96536.09;1032835;28;20029;-46
2021/04/04 01:03:25;;;;;;;11.85;5.80;;;;;;;0.95;89.70;96539.50;1037103;28;20029;-47
2021/04/04 01:03:56;;;;;;;12.80;6.03;;;;;;;0.95;89.94;96539.50;1040895;28;20060;-47
2021/04/04 01:04:26;;;;;;;12.03;5.77;;;;;;;0.91;90.20;96532.91;1041165;28;20159;-46
2021/04/04 01:04:59;;;;;;;12.80;6.23;;;;;;;0.92;90.15;96538.94;1036447;28;20471;-46
2021/04/04 01:05:39;;;;;;;15.00;6.40;;;;;;;0.93;89.60;96538.81;1036882;28;20132;-46
2021/04/04 01:06:11;;;;;;;11.57;6.25;;;;;;;0.95;89.41;96542.09;1036843;28;20435;-47
2021/04/04 01:06:42;;;;;;;9.90;5.55;;;;;;;0.94;89.55;96537.03;1038786;28;20459;-47
2021/04/04 01:07:12;;;;;;;11.73;5.63;;;;;;;0.96;89.36;96545.53;1041407;28;20036;-46
2021/04/04 01:07:45;;;;;;;10.33;5.67;;;;;;;0.89;89.36;96533.03;1041162;28;20075;-47
2021/04/04 01:08:16;;;;;;;11.52;5.88;;;;;;;0.90;89.33;96533.88;1044276;28;20021;-48
2021/04/04 01:08:47;;;;;;;8.97;5.70;;;;;;;0.87;89.44;96540.13;1044790;28;20033;-48
2021/04/04 01:09:20;;;;;;;10.33;5.70;;;;;;;0.87;89.78;96544.50;1044946;28;20396;-47
2021/04/04 01:09:50;;;;;;;9.98;5.50;;;;;;;0.90;89.10;96539.06;1037492;28;20072;-47
2021/04/04 01:10:21;;;;;;;12.63;5.77;;;;;;;0.92;89.34;96538.94;1037039;28;20095;-48
2021/04/04 01:10:51;;;;;;;12.27;6.00;;;;;;;0.94;89.21;96539.63;1032642;28;20080;-48
2021/04/04 01:11:27;;;;;;;8.73;5.23;;;;;;;0.95;89.57;96534.31;1032406;28;20022;-47
2021/04/04 01:12:03;;;;;;;9.45;5.43;;;;;;;0.94;89.49;96545.66;1033660;28;20149;-48
2021/04/04 01:12:39;;;;;;;14.73;6.03;;;;;;;0.88;89.83;96538.34;1034352;28;20030;-47
2021/04/04 01:13:37;;;;;;;12.68;5.95;;;;;;;0.92;90.24;96537.16;1039012;28;20061;-49
2021/04/04 01:14:20;;;;;;;10.38;5.55;;;;;;;0.91;90.02;96540.69;1044914;28;20025;-48
2021/04/04 01:15:00;;;;;;;11.50;5.82;;;;;;;0.85;89.83;96533.41;1044716;28;20104;-47
2021/04/04 01:15:32;;;;;;;11.40;6.00;;;;;;;0.81;89.87;96537.22;1040854;28;20044;-48
2021/04/04 01:16:17;;;;;;;11.85;5.45;;;;;;;0.84;90.25;96542.16;1040823;28;20541;-47
2021/04/04 01:16:47;;;;;;;15.18;5.75;;;;;;;0.86;89.74;96538.47;1040710;28;20026;-48
2021/04/04 01:17:19;;;;;;;12.63;6.00;;;;;;;0.87;90.19;96536.72;1035087;28;20022;-46
2021/04/04 01:17:49;;;;;;;13.45;5.90;;;;;;;0.85;89.39;96539.44;1032693;28;20101;-47
2021/04/04 01:18:54;;;;;;;10.03;5.77;;;;;;;0.88;89.46;96530.56;1029461;28;20019;-47
2021/04/04 01:19:54;;;;;;;10.65;5.30;;;;;;;0.83;90.28;96532.72;1033121;28;20034;-46
2021/04/04 01:20:28;;;;;;;11.98;5.60;;;;;;;0.86;90.14;96537.66;1036616;28;20018;-46
2021/04/04 01:21:02;;;;;;;9.98;5.78;;;;;;;0.82;90.24;96523.28;1036720;28;20443;-48
2021/04/04 01:21:39;;;;;;;9.02;5.75;;;;;;;0.85;90.62;96533.41;1036602;28;20025;-46
2021/04/04 01:22:18;;;;;;;12.35;6.40;;;;;;;0.79;90.56;96523.53;1034972;28;20361;-47
2021/04/04 01:23:11;;;;;;;9.88;5.90;;;;;;;0.84;90.38;96531.78;1036867;28;20022;-48
2021/04/04 01:24:01;;;;;;;16.33;6.35;;;;;;;0.84;90.63;96529.19;1029293;28;20022;-47
2021/04/04 01:25:07;;;;;;;11.73;5.85;;;;;;;0.83;90.46;96532.72;1028876;28;20469;-47
2021/04/04 01:25:38;;;;;;;11.57;5.95;;;;;;;0.80;90.71;96530.38;1027858;28;20034;-47
2021/04/04 01:26:27;;;;;;;11.27;6.30;;;;;;;0.75;90.96;96533.34;1024563;29;20019;-47
2021/04/04 01:27:06;;;;;;;9.55;5.78;;;;;;;0.79;91.17;96526.97;1024501;29;20020;-46
2021/04/04 01:27:55;;;;;;;9.85;5.85;;;;;;;0.77;91.06;96530.63;1024557;29;20023;-47
2021/04/04 01:28:27;;;;;;;10.93;5.75;;;;;;;0.80;92.13;96527.78;1024785;29;20075;-48
2021/04/04 01:28:58;;;;;;;14.55;6.07;;;;;;;0.82;91.40;96531.91;1024657;29;20523;-46
2021/04/04 01:29:28;;;;;;;10.47;6.23;;;;;;;0.82;91.53;96533.66;1027116;28;20038;-46
2021/04/04 01:29:59;;;;;;;11.90;5.80;;;;;;;0.82;91.74;96531.06;1028474;28;20027;-46
2021/04/04 01:30:32;;;;;;;11.47;6.13;;;;;;;0.85;91.36;96534.25;1020079;29;20027;-47
2021/04/04 01:31:03;;;;;;;12.90;5.90;;;;;;;0.85;91.20;96525.63;1016426;29;20151;-46
2021/04/04 01:31:34;;;;;;;17.77;6.20;;;;;;;0.84;91.00;96531.78;1016753;29;20043;-46
2021/04/04 01:32:04;;;;;;;10.75;5.95;;;;;;;0.88;90.84;96531.41;1013166;29;20068;-46
2021/04/04 01:32:35;;;;;;;10.40;5.80;;;;;;;0.83;91.11;96527.53;1016323;29;20128;-46
2021/04/04 01:33:08;;;;;;;13.40;6.18;;;;;;;0.84;91.18;96527.41;1028455;28;20035;-46
2021/04/04 01:33:39;;;;;;;9.85;5.63;;;;;;;0.85;90.75;96529.06;1021138;29;20035;-46
2021/04/04 01:34:10;;;;;;;8.87;5.63;;;;;;;0.85;90.99;96530.81;1018733;29;20050;-47
2021/04/04 01:34:40;;;;;;;12.30;5.53;;;;;;;0.84;90.53;96531.78;1017005;29;20039;-46
2021/04/04 01:35:12;;;;;;;9.83;5.90;;;;;;;0.81;90.72;96537.22;1024693;29;20023;-46
2021/04/04 01:35:46;;;;;;;10.57;5.13;;;;;;;0.86;90.52;96535.06;1024503;29;20027;-47
2021/04/04 01:36:17;;;;;;;11.18;5.50;;;;;;;0.86;89.99;96527.28;1021204;29;20028;-46
2021/04/04 01:36:50;;;;;;;9.70;5.55;;;;;;;0.84;90.43;96526.59;1020648;29;20086;-47
2021/04/04 01:37:21;;;;;;;8.70;5.43;;;;;;;0.87;89.98;96534.13;1020658;29;20110;-47
2021/04/04 01:37:53;;;;;;;9.70;5.80;;;;;;;0.93;89.99;96536.22;1021084;29;20111;-47
2021/04/04 01:38:26;;;;;;;11.30;5.88;;;;;;;0.92;89.97;96531.97;1025009;29;20532;-48
2021/04/04 01:38:56;;;;;;;12.90;6.20;;;;;;;0.86;90.16;96530.69;1025413;28;20044;-47
2021/04/04 01:39:28;;;;;;;9.60;5.73;;;;;;;0.82;90.26;96528.47;1028486;28;20043;-46
2021/04/04 01:39:58;;;;;;;11.45;5.80;;;;;;;0.78;90.98;96532.28;1020638;29;20501;-48
2021/04/04 01:40:30;;;;;;;11.83;5.87;;;;;;;0.78;91.00;96527.91;1020290;29;20035;-47
2021/04/04 01:41:04;;;;;;;8.43;5.78;;;;;;;0.80;91.05;96528.59;1020495;29;20138;-48
2021/04/04 01:41:41;;;;;;;8.35;5.82;;;;;;;0.80;90.90;96526.00;1021555;29;20031;-47
2021/04/04 01:42:12;;;;;;;10.13;6.03;;;;;;;0.79;91.25;96526.97;1023786;29;20082;-47
2021/04/04 01:42:43;;;;;;;12.35;5.68;;;;;;;0.78;90.80;96524.50;1017970;29;20052;-47
2021/04/04 01:43:14;;;;;;;12.67;5.57;;;;;;;0.78;90.97;96532.28;1020605;29;20028;-48
2021/04/04 01:43:46;;;;;;;9.85;5.90;;;;;;;0.76;90.76;96535.00;1024587;29;20118;-48
2021/04/04 01:44:17;;;;;;;12.73;6.70;;;;;;;0.73;91.14;96530.06;1020691;28;20030;-47
2021/04/04 01:44:48;;;;;;;13.32;5.63;;;;;;;0.72;91.54;96520.63;1024453;29;20047;-47
2021/04/04 01:45:20;;;;;;;12.03;6.13;;;;;;;0.71;91.80;96531.94;1024523;29;20497;-47
2021/04/04 01:45:51;;;;;;;10.18;6.10;;;;;;;0.75;92.23;96517.78;1028575;28;20132;-47
2021/04/04 01:46:22;;;;;;;10.00;5.83;;;;;;;0.75;91.75;96520.38;1028294;28;20027;-47
2021/04/04 01:46:54;;;;;;;10.20;5.93;;;;;;;0.76;92.29;96523.78;1028419;28;20025;-48
2021/04/04 01:47:24;;;;;;;11.57;5.97;;;;;;;0.74;91.88;96525.69;1028829;28;20026;-47
2021/04/04 01:47:55;;;;;;;9.13;6.00;;;;;;;0.73;91.94;96518.84;1028513;28;20042;-47
2021/04/04 01:48:25;;;;;;;12.37;5.97;;;;;;;0.74;91.53;96536.06;1028113;28;20019;-49
2021/04/04 01:48:56;;;;;;;10.10;6.27;;;;;;;0.73;91.91;96524.03;1024324;29;20050;-48
2021/04/04 01:49:26;;;;;;;12.67;6.40;;;;;;;0.74;92.02;96523.91;1020433;29;20020;-48
2021/04/04 01:49:57;;;;;;;11.57;6.00;;;;;;;0.78;92.74;96527.09;1024534;29;20019;-48
2021/04/04 01:50:28;;;;;;;11.20;5.93;;;;;;;0.77;92.72;96525.44;1020165;29;20015;-48
2021/04/04 01:50:58;;;;;;;10.77;6.00;;;;;;;0.74;92.68;96523.91;1020332;29;20027;-47
2021/04/04 01:51:29;;;;;;;10.43;6.07;;;;;;;0.77;93.10;96522.84;1020686;29;20023;-48
2021/04/04 01:51:59;;;;;;;9.83;5.60;;;;;;;0.74;92.46;96520.50;1020574;29;20016;-47
2021/04/04 01:52:30;;;;;;;11.03;6.33;;;;;;;0.75;92.29;96524.75;1024257;28;20496;-47
2021/04/04 01:53:00;;;;;;;9.17;5.73;;;;;;;0.76;92.29;96528.97;1024556;29;20071;-48
2021/04/04 01:53:31;;;;;;;11.67;5.97;;;;;;;0.75;92.13;96524.75;1020714;29;20024;-47
2021/04/04 01:54:03;;;;;;;12.90;5.90;;;;;;;0.74;92.58;96517.91;1020561;29;20016;-48
2021/04/04 01:54:34;;;;;;;15.57;6.00;;;;;;;0.72;92.93;96518.03;1020903;29;20411;-47
2021/04/04 01:55:06;;;;;;;9.68;5.88;;;;;;;0.73;93.30;96517.09;1024391;28;20032;-50
2021/04/04 01:55:37;;;;;;;9.90;5.90;;;;;;;0.73;93.41;96532.66;1028682;28;20057;-48
2021/04/04 01:56:08;;;;;;;9.43;6.38;;;;;;;0.73;93.34;96518.84;1032194;28;20077;-48
2021/04/04 01:56:39;;;;;;;11.03;6.20;;;;;;;0.70;93.28;96525.94;1032322;28;20030;-47
2021/04/04 01:57:10;;;;;;;10.17;6.10;;;;;;;0.70;92.91;96528.53;1028228;28;20058;-47
2021/04/04 01:57:41;;;;;;;9.75;5.72;;;;;;;0.69;92.96;96518.28;1028462;28;20150;-49
2021/04/04 01:58:11;;;;;;;10.50;6.10;;;;;;;0.68;93.68;96527.84;1028305;28;20022;-47
2021/04/04 01:58:48;;;;;;;10.63;6.10;;;;;;;0.70;94.80;96532.91;1024233;29;20027;-49
2021/04/04 01:59:20;;;;;;;12.82;6.15;;;;;;;0.69;94.35;96524.28;1025288;28;20035;-48
2021/04/04 01:59:51;;;;;;;12.38;6.38;;;;;;;0.72;94.09;96532.78;1024293;28;20027;-48
2021/04/04 02:00:24;;;;;;;9.27;6.17;;;;;;;0.73;94.60;96529.22;1020144;29;20425;-47
2021/04/04 02:00:54;;;;;;;11.40;6.05;;;;;;;0.73;94.32;96535.25;1020802;29;20508;-47
2021/04/04 02:01:26;;;;;;;12.07;6.27;;;;;;;0.72;94.29;96527.59;1020864;29;20032;-47
2021/04/04 02:02:05;;;;;;;11.10;5.70;;;;;;;0.74;94.20;96530.88;1021213;29;20031;-47
2021/04/04 02:02:36;;;;;;;13.27;6.22;;;;;;;0.74;94.59;96525.69;1020638;29;20027;-48
2021/04/04 02:03:07;;;;;;;11.18;6.07;;;;;;;0.72;94.64;96533.59;1024888;28;20437;-47
2021/04/04 02:03:37;;;;;;;13.57;6.05;;;;;;;0.70;94.88;96531.13;1029451;28;20472;-48
2021/04/04 02:04:08;;;;;;;13.00;6.03;;;;;;;0.68;94.04;96530.44;1024290;28;20019;-47
2021/04/04 02:04:39;;;;;;;10.57;6.07;;;;;;;0.68;94.21;96527.84;1028543;28;20369;-47
2021/04/04 02:05:10;;;;;;;12.32;6.05;;;;;;;0.68;93.75;96530.44;1032475;28;20022;-51
2021/04/04 02:05:41;;;;;;;9.13;5.97;;;;;;;0.68;93.55;96527.84;1040737;28;20112;-47
2021/04/04 02:06:12;;;;;;;13.25;6.03;;;;;;;0.69;93.40;96532.06;1041053;28;20028;-47
2021/04/04 02:06:43;;;;;;;10.00;5.33;;;;;;;0.69;93.55;96526.88;1044871;28;20036;-48
2021/04/04 02:07:15;;;;;;;12.20;5.70;;;;;;;0.72;93.17;96532.78;1040359;28;20023;-45
2021/04/04 02:07:47;;;;;;;9.38;5.72;;;;;;;0.70;93.50;96528.53;1040993;28;20044;-47
2021/04/04 02:08:18;;;;;;;11.02;5.95;;;;;;;0.72;93.78;96536.19;1036578;28;20096;-47
2021/04/04 02:08:48;;;;;;;12.40;6.20;;;;;;;0.70;93.12;96520.75;1036836;28;20033;-46
2021/04/04 02:09:19;;;;;;;10.20;5.93;;;;;;;0.72;93.45;96522.41;1032282;28;20015;-46
2021/04/04 02:09:49;;;;;;;12.53;6.10;;;;;;;0.73;92.67;96530.06;1032738;28;20050;-47
2021/04/04 02:10:27;;;;;;;11.33;5.83;;;;;;;0.73;92.94;96529.22;1024438;29;20019;-48
2021/04/04 02:10:57;;;;;;;10.35;5.80;;;;;;;0.75;93.14;96533.34;1026357;28;20069;-46
2021/04/04 02:11:28;;;;;;;11.30;5.90;;;;;;;0.77;92.96;96528.03;1028254;28;20030;-47
2021/04/04 02:11:59;;;;;;;12.83;6.43;;;;;;;0.74;92.76;96525.69;1023707;28;20026;-45
2021/04/04 02:12:29;;;;;;;11.25;6.38;;;;;;;0.73;92.81;96530.06;1032438;28;20385;-48
2021/04/04 02:13:00;;;;;;;13.00;6.00;;;;;;;0.75;93.53;96532.53;1032052;28;20520;-46
2021/04/04 02:13:31;;;;;;;10.83;6.17;;;;;;;0.72;93.60;96533.59;1024706;28;20026;-45
2021/04/04 02:14:09;;;;;;;12.67;5.93;;;;;;;0.68;93.59;96534.78;1032944;28;20022;-47
2021/04/04 02:14:39;;;;;;;11.93;6.28;;;;;;;0.66;94.01;96529.72;1038042;28;20030;-46
2021/04/04 02:15:11;;;;;;;11.27;6.90;;;;;;;0.62;94.37;96524.91;1036467;28;20119;-48
2021/04/04 02:15:42;;;;;;;12.30;6.20;;;;;;;0.62;93.94;96528.34;1037942;28;20025;-47
2021/04/04 02:16:12;;;;;;;15.10;6.27;;;;;;;0.63;93.90;96522.19;1032437;28;20026;-47
2021/04/04 02:16:45;;;;;;;10.13;6.23;;;;;;;0.64;93.85;96529.03;1024838;28;20362;-48
2021/04/04 02:17:16;;;;;;;14.10;6.80;;;;;;;0.67;93.85;96528.78;1024318;29;20094;-47
2021/04/04 02:17:47;;;;;;;12.10;6.20;;;;;;;0.67;94.46;96526.19;1024913;28;20070;-47
2021/04/04 02:18:18;;;;;;;13.10;6.38;;;;;;;0.65;94.40;96528.09;1024902;28;20031;-46
2021/04/04 02:18:48;;;;;;;11.87;6.30;;;;;;;0.66;93.62;96523.72;1024176;29;20103;-46
2021/04/04 02:19:20;;;;;;;11.67;5.70;;;;;;;0.64;94.38;96528.22;1024754;28;20039;-46
2021/04/04 02:19:50;;;;;;;10.38;6.63;;;;;;;0.62;94.30;96524.91;1033017;28;20037;-47
2021/04/04 02:20:21;;;;;;;9.93;6.57;;;;;;;0.62;94.07;96523.16;1036390;28;20128;-47
2021/04/04 02:20:54;;;;;;;10.73;6.13;;;;;;;0.66;93.56;96523.72;1032356;28;20037;-47
2021/04/04 02:21:26;;;;;;;13.82;6.80;;;;;;;0.61;93.86;96528.44;1028427;28;20023;-48
2021/04/04 02:21:58;;;;;;;12.60;6.97;;;;;;;0.59;93.60;96523.38;1033297;28;20057;-47
2021/04/04 02:22:28;;;;;;;15.07;7.32;;;;;;;0.60;94.22;96519.84;1038030;28;20038;-47
2021/04/04 02:23:00;;;;;;;13.37;7.00;;;;;;;0.57;94.03;96521.88;1044396;28;20021;-47
2021/04/04 02:23:30;;;;;;;14.48;7.72;;;;;;;0.52;93.81;96525.66;1044524;28;20028;-46
2021/04/04 02:24:02;;;;;;;13.27;7.10;;;;;;;0.53;93.57;96519.53;1040554;28;20163;-46
2021/04/04 02:24:33;;;;;;;18.17;8.13;;;;;;;0.52;93.68;96524.84;1036547;28;20113;-48
2021/04/04 02:25:06;;;;;;;14.53;7.40;;;;;;;0.53;93.57;96521.28;1036888;28;20030;-47
2021/04/04 02:25:37;;;;;;;14.88;8.10;;;;;;;0.53;93.68;96523.88;1036903;28;20083;-47
2021/04/04 02:26:10;;;;;;;14.15;6.97;;;;;;;0.50;93.75;96522.38;1036937;28;20471;-46
2021/04/04 02:26:41;;;;;;;14.13;8.18;;;;;;;0.51;93.60;96526.59;1032551;28;20491;-46
2021/04/04 02:27:11;;;;;;;14.50;7.27;;;;;;;0.51;93.73;96521.41;1028999;28;20065;-48
2021/04/04 02:27:43;;;;;;;16.90;8.10;;;;;;;0.50;93.82;96514.59;1028877;28;20019;-47
2021/04/04 02:28:13;;;;;;;16.90;7.13;;;;;;;0.50;94.03;96516.34;1033166;28;20361;-47
2021/04/04 02:28:44;;;;;;;16.00;7.53;;;;;;;0.50;93.82;96514.59;1040593;28;20073;-48
2021/04/04 02:29:14;;;;;;;11.03;6.57;;;;;;;0.50;93.42;96517.19;1044731;28;20005;-47
2021/04/04 02:29:45;;;;;;;13.40;7.00;;;;;;;0.52;93.80;96517.88;1048740;28;20095;-48
2021/04/04 02:30:16;;;;;;;13.73;7.50;;;;;;;0.48;93.29;96521.66;1048607;28;20529;-46
2021/04/04 02:30:47;;;;;;;14.57;7.60;;;;;;;0.51;93.13;96513.63;1048741;28;20050;-47
2021/04/04 02:31:18;;;;;;;12.43;7.00;;;;;;;0.49;93.59;96512.13;1044665;28;20021;-46